createdAt,value
2019-05-21T00:02:16.778Z,24.47
2019-05-21T00:04:44.668Z,25.97
2019-05-21T00:07:12.024Z,27.57
2019-05-21T00:09:39.475Z,28.37
2019-05-21T00:12:06.785Z,25.97
2019-05-21T00:14:34.033Z,28.07
2019-05-21T00:17:01.364Z,26.70
2019-05-21T00:19:28.690Z,27.23
2019-05-21T00:21:55.919Z,25.63
2019-05-21T00:24:23.193Z,24.67
2019-05-21T00:26:50.626Z,26.27
2019-05-21T00:29:54.451Z,26.30
2019-05-21T00:32:57.777Z,26.17
2019-05-21T00:36:02.414Z,25.20
2019-05-21T00:39:05.834Z,23.37
2019-05-21T00:42:02.091Z,25.00
2019-05-21T00:44:34.577Z,24.43
2019-05-21T00:47:01.974Z,23.77
2019-05-21T00:49:29.261Z,23.20
2019-05-21T00:52:07.046Z,23.90
2019-05-21T00:54:25.722Z,24.73
2019-05-21T00:56:52.952Z,25.07
2019-05-21T00:59:20.210Z,22.70
2019-05-21T01:01:47.466Z,23.73
2019-05-21T01:04:14.725Z,23.27
2019-05-21T01:06:41.984Z,22.70
2019-05-21T01:09:09.251Z,21.23
2019-05-21T01:11:36.613Z,22.80
2019-05-21T01:14:04.092Z,21.27
2019-05-21T01:16:31.387Z,20.00
2019-05-21T01:18:58.677Z,20.97
2019-05-21T01:21:25.934Z,21.27
2019-05-21T01:23:53.172Z,21.27
2019-05-21T01:26:20.493Z,17.83
2019-05-21T01:28:47.774Z,17.13
2019-05-21T01:31:15.050Z,0.83
2019-05-21T01:33:42.290Z,0.37
2019-05-21T01:36:09.721Z,0.73
2019-05-21T01:38:38.026Z,0.87
2019-05-21T01:41:05.262Z,1.00
2019-05-21T01:43:32.613Z,0.77
2019-05-21T01:45:59.906Z,0.57
2019-05-21T01:48:27.187Z,1.33
2019-05-21T01:50:54.506Z,0.57
2019-05-21T01:53:21.751Z,0.23
2019-05-21T01:55:49.000Z,0.07
2019-05-21T01:58:17.296Z,0.83
2019-05-21T02:00:44.535Z,0.00
2019-05-21T02:03:12.821Z,0.60
2019-05-21T02:05:40.079Z,2.27
2019-05-21T02:08:07.289Z,0.30
2019-05-21T02:10:34.557Z,0.20
2019-05-21T02:13:01.792Z,0.33
2019-05-21T02:15:29.209Z,0.63
2019-05-21T02:17:56.567Z,0.13
2019-05-21T02:20:23.812Z,1.20
2019-05-21T02:22:51.031Z,0.10
2019-05-21T02:25:18.306Z,0.23
2019-05-21T02:27:45.722Z,0.37
2019-05-21T02:30:13.187Z,0.40
2019-05-21T02:32:40.566Z,0.50
2019-05-21T02:35:07.902Z,0.00
2019-05-21T02:37:35.173Z,0.00
2019-05-21T02:40:02.589Z,0.00
2019-05-21T02:42:29.956Z,0.37
2019-05-21T02:44:57.211Z,0.10
2019-05-21T02:47:24.437Z,0.83
2019-05-21T02:49:51.703Z,0.37
2019-05-21T02:52:18.932Z,0.10
2019-05-21T02:54:46.235Z,0.00
2019-05-21T02:57:13.532Z,0.30
2019-05-21T02:59:42.263Z,0.13
2019-05-21T03:02:16.457Z,0.20
2019-05-21T03:04:43.948Z,0.17
2019-05-21T03:07:16.941Z,0.70
2019-05-21T03:09:44.733Z,0.03
2019-05-21T03:12:12.088Z,0.07
2019-05-21T03:14:39.758Z,0.40
2019-05-21T03:17:07.015Z,0.17
2019-05-21T03:19:34.427Z,0.30
2019-05-21T03:22:01.676Z,1.23
2019-05-21T03:24:28.927Z,0.00
2019-05-21T03:26:56.161Z,0.07
2019-05-21T03:29:23.455Z,0.83
2019-05-21T03:31:50.708Z,0.00
2019-05-21T03:34:18.000Z,0.53
2019-05-21T03:36:45.235Z,0.77
2019-05-21T03:39:12.470Z,0.37
2019-05-21T03:41:39.767Z,0.57
2019-05-21T03:44:06.986Z,0.47
2019-05-21T03:46:34.345Z,0.30
2019-05-21T03:49:01.573Z,0.70
2019-05-21T03:51:28.839Z,0.40
2019-05-21T03:53:56.061Z,0.73
2019-05-21T03:56:23.345Z,0.50
2019-05-21T03:58:50.560Z,0.83
2019-05-21T04:01:17.802Z,0.00
2019-05-21T04:03:45.012Z,0.20
2019-05-21T04:06:12.222Z,0.03
2019-05-21T04:08:39.468Z,0.00
2019-05-21T04:11:06.700Z,0.00
2019-05-21T04:13:33.956Z,0.30
2019-05-21T04:16:19.183Z,0.93
2019-05-21T04:18:56.037Z,0.93
2019-05-21T04:21:23.287Z,0.93
2019-05-21T04:23:50.519Z,0.10
2019-05-21T04:26:17.791Z,0.33
2019-05-21T04:28:45.075Z,0.00
2019-05-21T04:31:12.324Z,0.70
2019-05-21T04:33:39.610Z,0.00
2019-05-21T04:36:07.049Z,1.13
2019-05-21T04:38:34.276Z,0.70
2019-05-21T04:41:01.530Z,0.37
2019-05-21T04:43:28.779Z,0.00
2019-05-21T04:45:56.072Z,0.20
2019-05-21T04:48:23.385Z,0.20
2019-05-21T04:50:50.674Z,1.10
2019-05-21T04:53:17.923Z,0.67
2019-05-21T04:55:45.166Z,2.10
2019-05-21T04:58:14.168Z,0.60
2019-05-21T05:00:42.912Z,0.77
2019-05-21T05:03:10.954Z,0.77
2019-05-21T05:05:38.501Z,0.63
2019-05-21T05:08:06.330Z,1.70
2019-05-21T05:10:34.756Z,0.20
2019-05-21T05:13:01.988Z,0.30
2019-05-21T05:15:29.229Z,0.00
2019-05-21T05:17:56.471Z,0.03
2019-05-21T05:20:23.755Z,0.20
2019-05-21T05:22:51.090Z,1.70
2019-05-21T05:25:18.363Z,0.80
2019-05-21T05:27:45.634Z,0.10
2019-05-21T05:30:12.974Z,1.83
2019-05-21T05:32:40.300Z,1.33
2019-05-21T05:35:07.676Z,1.40
2019-05-21T05:37:43.531Z,0.10
2019-05-21T05:40:05.255Z,1.13
2019-05-21T05:42:32.497Z,1.07
2019-05-21T05:44:59.753Z,0.80
2019-05-21T05:47:27.076Z,1.40
2019-05-21T05:49:56.229Z,1.10
2019-05-21T05:52:23.518Z,0.10
2019-05-21T05:54:50.893Z,0.10
2019-05-21T05:57:18.209Z,0.93
2019-05-21T05:59:45.431Z,0.30
2019-05-21T06:02:12.983Z,0.67
2019-05-21T06:04:40.287Z,0.87
2019-05-21T06:07:07.642Z,0.53
2019-05-21T06:09:34.895Z,0.20
2019-05-21T06:12:02.352Z,0.87
2019-05-21T06:14:29.858Z,1.00
2019-05-21T06:16:57.165Z,1.43
2019-05-21T06:19:24.671Z,0.23
2019-05-21T06:21:51.905Z,0.57
2019-05-21T06:24:19.349Z,0.83
2019-05-21T06:26:46.637Z,0.20
2019-05-21T06:29:13.936Z,0.73
2019-05-21T06:31:41.190Z,0.83
2019-05-21T06:34:08.446Z,0.93
2019-05-21T06:36:35.796Z,0.43
2019-05-21T06:39:05.741Z,0.00
2019-05-21T06:41:33.149Z,0.20
2019-05-21T06:44:01.892Z,0.00
2019-05-21T06:46:29.224Z,0.33
2019-05-21T06:48:56.661Z,0.67
2019-05-21T06:51:23.922Z,0.03
2019-05-21T06:53:51.217Z,0.20
2019-05-21T06:56:18.556Z,0.93
2019-05-21T06:58:45.922Z,0.90
2019-05-21T07:01:13.344Z,0.67
2019-05-21T07:03:40.918Z,1.23
2019-05-21T07:06:08.233Z,0.37
2019-05-21T07:08:35.646Z,0.10
2019-05-21T07:11:02.896Z,0.47
2019-05-21T07:13:31.076Z,0.00
2019-05-21T07:15:59.937Z,1.10
2019-05-21T07:18:27.331Z,1.27
2019-05-21T07:20:54.536Z,0.67
2019-05-21T07:23:21.818Z,0.10
2019-05-21T07:25:49.132Z,1.00
2019-05-21T07:28:16.425Z,0.37
2019-05-21T07:30:43.746Z,0.67
2019-05-21T07:33:11.246Z,0.27
2019-05-21T07:35:39.717Z,0.47
2019-05-21T07:38:07.072Z,0.03
2019-05-21T07:40:39.874Z,0.47
2019-05-21T07:43:07.387Z,0.30
2019-05-21T07:45:38.339Z,0.10
2019-05-21T07:48:05.913Z,0.33
2019-05-21T07:50:33.480Z,0.47
2019-05-21T07:53:00.840Z,0.00
2019-05-21T07:55:28.208Z,0.10
2019-05-21T07:57:55.472Z,0.30
2019-05-21T08:00:23.018Z,0.50
2019-05-21T08:02:50.697Z,0.37
2019-05-21T08:05:17.979Z,0.33
2019-05-21T08:07:45.343Z,0.63
2019-05-21T08:10:13.103Z,0.83
2019-05-21T08:12:40.385Z,0.90
2019-05-21T08:15:07.814Z,0.30
2019-05-21T08:17:35.176Z,0.40
2019-05-21T08:20:09.189Z,0.20
2019-05-21T08:22:31.861Z,0.33
2019-05-21T08:24:59.174Z,0.10
2019-05-21T08:27:26.418Z,0.20
2019-05-21T08:29:53.685Z,0.20
2019-05-21T08:32:20.970Z,0.57
2019-05-21T08:34:48.360Z,1.33
2019-05-21T08:37:15.648Z,0.00
2019-05-21T08:39:42.883Z,0.40
2019-05-21T08:42:10.211Z,0.00
2019-05-21T08:44:37.483Z,0.40
2019-05-21T08:47:04.749Z,0.00
2019-05-21T08:49:32.027Z,0.73
2019-05-21T08:51:59.345Z,0.60
2019-05-21T08:54:44.783Z,0.20
2019-05-21T08:57:12.092Z,0.00
2019-05-21T08:59:39.333Z,0.10
2019-05-21T09:02:06.645Z,0.00
2019-05-21T09:04:45.969Z,0.23
2019-05-21T09:07:03.053Z,0.13
2019-05-21T09:09:48.494Z,0.00
2019-05-21T09:11:59.537Z,2.13
2019-05-21T09:14:26.867Z,0.20
2019-05-21T09:16:55.276Z,0.07
2019-05-21T09:19:22.511Z,0.10
2019-05-21T09:21:49.763Z,0.07
2019-05-21T09:24:17.051Z,0.97
2019-05-21T09:26:44.409Z,0.00
2019-05-21T09:29:11.717Z,0.67
2019-05-21T09:31:38.960Z,0.20
2019-05-21T09:34:08.993Z,0.50
2019-05-21T09:36:36.250Z,0.20
2019-05-21T09:39:04.478Z,0.30
2019-05-21T09:41:33.456Z,0.00
2019-05-21T09:44:00.741Z,0.00
2019-05-21T09:46:27.995Z,0.00
2019-05-21T09:48:56.210Z,0.60
2019-05-21T09:51:23.517Z,0.00
2019-05-21T09:53:50.879Z,0.10
2019-05-21T09:56:33.223Z,0.37
2019-05-21T09:59:06.955Z,0.53
2019-05-21T10:01:47.474Z,0.00
2019-05-21T10:04:11.951Z,0.23
2019-05-21T10:06:39.246Z,0.13
2019-05-21T10:09:09.121Z,0.00
2019-05-21T10:11:36.550Z,0.00
2019-05-21T10:14:04.127Z,0.53
2019-05-21T10:16:31.434Z,0.00
2019-05-21T10:18:58.651Z,0.00
2019-05-21T10:21:26.059Z,0.00
2019-05-21T10:23:53.350Z,0.20
2019-05-21T10:26:20.731Z,0.43
2019-05-21T10:28:48.010Z,0.03
2019-05-21T10:31:15.348Z,0.10
2019-05-21T10:33:43.725Z,0.43
2019-05-21T10:36:11.226Z,0.00
2019-05-21T10:38:39.700Z,0.10
2019-05-21T10:41:07.235Z,0.13
2019-05-21T10:43:34.701Z,0.00
2019-05-21T10:46:02.365Z,0.27
2019-05-21T10:48:29.721Z,0.20
2019-05-21T10:50:57.026Z,0.00
2019-05-21T10:53:24.417Z,0.00
2019-05-21T10:55:51.784Z,0.03
2019-05-21T10:58:20.332Z,0.00
2019-05-21T11:00:50.497Z,0.23
2019-05-21T11:03:21.698Z,0.00
2019-05-21T11:06:07.215Z,0.10
2019-05-21T11:08:23.935Z,0.70
2019-05-21T11:10:51.546Z,0.63
2019-05-21T11:13:18.884Z,0.00
2019-05-21T11:15:46.286Z,0.20
2019-05-21T11:18:13.584Z,0.20
2019-05-21T11:20:45.148Z,0.20
2019-05-21T11:23:12.639Z,0.20
2019-05-21T11:25:39.871Z,0.20
2019-05-21T11:28:07.267Z,0.00
2019-05-21T11:30:35.600Z,0.10
2019-05-21T11:33:03.031Z,0.30
2019-05-21T11:35:31.263Z,0.00
2019-05-21T11:37:58.504Z,0.13
2019-05-21T11:40:25.968Z,0.40
2019-05-21T11:42:54.478Z,0.53
2019-05-21T11:45:31.563Z,0.00
2019-05-21T11:47:54.462Z,0.43
2019-05-21T11:50:20.988Z,0.50
2019-05-21T11:52:48.346Z,0.63
2019-05-21T11:55:15.657Z,0.40
2019-05-21T11:57:42.962Z,0.20
2019-05-21T12:00:11.107Z,0.00
2019-05-21T12:02:38.677Z,0.20
2019-05-21T12:05:06.123Z,0.00
2019-05-21T12:07:33.518Z,0.10
2019-05-21T12:10:00.889Z,0.20
2019-05-21T12:12:28.231Z,0.00
2019-05-21T12:14:55.506Z,0.07
2019-05-21T12:17:22.768Z,0.53
2019-05-21T12:19:50.066Z,0.20
2019-05-21T12:22:17.364Z,0.10
2019-05-21T12:24:44.673Z,0.00
2019-05-21T12:27:11.934Z,0.63
2019-05-21T12:29:39.162Z,0.63
2019-05-21T12:32:06.447Z,0.13
2019-05-21T12:34:33.734Z,0.00
2019-05-21T12:37:00.983Z,0.30
2019-05-21T12:39:28.417Z,0.00
2019-05-21T12:41:55.680Z,0.00
2019-05-21T12:44:23.082Z,0.00
2019-05-21T12:46:50.380Z,0.33
2019-05-21T12:49:17.703Z,0.20
2019-05-21T12:51:44.962Z,0.10
2019-05-21T12:54:12.260Z,0.00
2019-05-21T12:56:40.962Z,0.20
2019-05-21T12:59:08.572Z,0.00
2019-05-21T13:01:35.896Z,0.00
2019-05-21T13:04:03.165Z,0.00
2019-05-21T13:06:30.546Z,0.10
2019-05-21T13:08:57.815Z,0.30
2019-05-21T13:11:25.157Z,0.17
2019-05-21T13:13:52.492Z,0.37
2019-05-21T13:16:19.756Z,0.23
2019-05-21T13:18:47.066Z,0.53
2019-05-21T13:21:14.304Z,0.20
2019-05-21T13:23:41.724Z,0.00
2019-05-21T13:26:09.932Z,0.00
2019-05-21T13:28:37.444Z,1.07
2019-05-21T13:31:04.770Z,0.30
2019-05-21T13:33:32.006Z,0.00
2019-05-21T13:35:59.414Z,0.40
2019-05-21T13:38:26.758Z,0.00
2019-05-21T13:40:54.210Z,0.40
2019-05-21T13:43:21.655Z,0.00
2019-05-21T13:45:49.155Z,0.00
2019-05-21T13:48:17.469Z,0.30
2019-05-21T13:50:44.849Z,0.00
2019-05-21T13:53:12.152Z,0.00
2019-05-21T13:55:39.444Z,0.20
2019-05-21T13:58:06.709Z,1.13
2019-05-21T14:00:41.168Z,0.00
2019-05-21T14:03:08.491Z,0.00
2019-05-21T14:05:38.891Z,0.23
2019-05-21T14:08:06.206Z,1.70
2019-05-21T14:10:33.681Z,0.37
2019-05-21T14:13:01.241Z,0.00
2019-05-21T14:15:29.509Z,0.00
2019-05-21T14:17:56.811Z,0.10
2019-05-21T14:20:24.262Z,0.43
2019-05-21T14:22:51.560Z,0.77
2019-05-21T14:25:18.830Z,0.00
2019-05-21T14:27:46.202Z,0.57
2019-05-21T14:30:13.606Z,0.10
2019-05-21T14:32:40.976Z,0.20
2019-05-21T14:35:08.297Z,0.10
2019-05-21T14:37:35.618Z,12.23
2019-05-21T14:40:03.077Z,18.57
2019-05-21T14:42:30.340Z,19.17
2019-05-21T14:44:57.615Z,20.97
2019-05-21T14:47:24.853Z,21.57
2019-05-21T14:49:52.129Z,21.83
2019-05-21T14:52:19.481Z,21.30
2019-05-21T14:54:46.739Z,22.87
2019-05-21T14:57:14.006Z,24.33
2019-05-21T14:59:41.246Z,21.67
2019-05-21T15:02:08.527Z,24.90
2019-05-21T15:04:37.025Z,22.67
2019-05-21T15:07:04.545Z,21.73
2019-05-21T15:09:31.761Z,23.60
2019-05-21T15:11:59.049Z,20.60
2019-05-21T15:14:26.465Z,21.30
2019-05-21T15:16:53.847Z,22.87
2019-05-21T15:19:21.069Z,22.17
2019-05-21T15:21:51.634Z,23.00
2019-05-21T15:24:19.893Z,21.37
2019-05-21T15:26:47.187Z,20.57
2019-05-21T15:29:14.436Z,20.80
2019-05-21T15:31:41.714Z,21.57
2019-05-21T15:34:09.307Z,21.60
2019-05-21T15:36:36.659Z,20.70
2019-05-21T15:39:05.778Z,20.47
2019-05-21T15:41:33.033Z,21.07
2019-05-21T15:44:00.587Z,19.97
2019-05-21T15:46:27.837Z,18.50
2019-05-21T15:48:55.106Z,18.83
2019-05-21T15:51:22.423Z,19.60
2019-05-21T15:53:49.675Z,18.53
2019-05-21T15:56:16.923Z,18.43
2019-05-21T15:58:44.203Z,19.03
2019-05-21T16:01:11.565Z,18.00
2019-05-21T16:03:38.833Z,18.03
2019-05-21T16:06:06.148Z,18.80
2019-05-21T16:08:33.411Z,17.67
2019-05-21T16:11:00.633Z,18.07
2019-05-21T16:13:27.917Z,18.33
2019-05-21T16:15:55.268Z,18.90
2019-05-21T16:18:22.760Z,19.47
2019-05-21T16:20:50.036Z,17.90
2019-05-21T16:23:17.401Z,18.43
2019-05-21T16:25:44.780Z,17.67
2019-05-21T16:28:12.113Z,19.37
2019-05-21T16:30:39.390Z,17.63
2019-05-21T16:33:06.421Z,19.43
2019-05-21T16:35:33.975Z,19.10
2019-05-21T16:38:01.386Z,19.17
2019-05-21T16:40:29.013Z,19.43
2019-05-21T16:42:56.467Z,19.30
2019-05-21T16:45:23.993Z,18.63
2019-05-21T16:47:51.233Z,18.80
2019-05-21T16:50:18.629Z,19.03
2019-05-21T16:52:45.982Z,18.97
2019-05-21T16:57:32.450Z,18.80
2019-05-21T16:59:59.893Z,18.20
2019-05-21T17:02:27.198Z,19.07
2019-05-21T17:04:54.771Z,19.23
2019-05-21T17:07:22.222Z,20.17
2019-05-21T17:09:49.935Z,19.60
2019-05-21T17:12:18.687Z,19.73
2019-05-21T17:14:46.186Z,19.33
2019-05-21T17:17:14.487Z,21.93
2019-05-21T17:19:41.746Z,22.77
2019-05-21T17:22:09.034Z,23.00
2019-05-21T17:24:37.493Z,25.23
2019-05-21T17:27:06.000Z,25.13
2019-05-21T17:31:49.433Z,25.90
2019-05-21T17:34:16.776Z,26.10
2019-05-21T17:36:44.184Z,26.67
2019-05-21T17:39:18.472Z,27.37
2019-05-21T17:41:46.024Z,28.30
2019-05-21T17:44:13.407Z,26.57
2019-05-21T17:46:40.958Z,25.67
2019-05-21T17:49:08.308Z,26.60
2019-05-21T17:51:35.681Z,29.00
2019-05-21T17:56:25.642Z,25.90
2019-05-21T17:58:53.222Z,26.50
2019-05-21T18:01:22.639Z,27.13
2019-05-21T18:03:51.998Z,26.87
2019-05-21T18:06:21.972Z,27.43
2019-05-21T18:08:49.986Z,27.37
2019-05-21T18:11:17.619Z,25.80
2019-05-21T18:13:49.162Z,27.77
2019-05-21T18:16:16.928Z,23.47
2019-05-21T18:18:45.604Z,25.73
2019-05-21T18:21:12.853Z,26.13
2019-05-21T18:23:40.800Z,25.43
2019-05-21T18:26:08.203Z,24.37
2019-05-21T18:30:52.336Z,26.87
2019-05-21T18:35:46.575Z,24.57
2019-05-21T18:38:13.959Z,26.43
2019-05-21T18:40:41.526Z,24.27
2019-05-21T18:43:08.910Z,23.77
2019-05-21T18:45:36.583Z,26.43
2019-05-21T18:48:04.021Z,24.07
2019-05-21T18:50:36.301Z,25.00
2019-05-21T18:53:00.755Z,26.13
2019-05-21T18:55:28.311Z,25.17
2019-05-21T18:57:55.741Z,25.97
2019-05-21T19:00:23.235Z,26.57
2019-05-21T19:02:50.738Z,25.47
2019-05-21T19:05:18.707Z,25.90
2019-05-21T19:07:46.307Z,27.07
2019-05-21T19:10:13.895Z,26.80
2019-05-21T19:12:41.376Z,26.23
2019-05-21T19:15:08.800Z,27.67
2019-05-21T19:17:36.374Z,24.97
2019-05-21T19:20:04.273Z,25.77
2019-05-21T19:22:32.573Z,25.63
2019-05-21T19:24:59.956Z,25.53
2019-05-21T19:27:27.478Z,26.67
2019-05-21T19:29:54.745Z,26.07
2019-05-21T19:32:22.045Z,26.33
2019-05-21T19:34:49.344Z,26.73
2019-05-21T19:37:16.700Z,24.97
2019-05-21T19:39:44.086Z,26.53
2019-05-21T19:42:11.407Z,25.73
2019-05-21T19:44:38.770Z,24.00
2019-05-21T19:47:06.145Z,25.33
2019-05-21T19:49:33.418Z,24.87
2019-05-21T19:52:00.771Z,24.30
2019-05-21T19:54:28.043Z,23.77
2019-05-21T19:56:55.265Z,25.53
2019-05-21T19:59:22.626Z,23.87
2019-05-21T20:01:50.386Z,24.43
2019-05-21T20:04:18.533Z,23.63
2019-05-21T20:06:46.088Z,24.37
2019-05-21T20:09:15.821Z,25.13
2019-05-21T20:11:43.454Z,24.20
2019-05-21T20:14:11.707Z,24.60
2019-05-21T20:16:39.317Z,24.40
2019-05-21T20:19:06.947Z,24.87
2019-05-21T20:21:35.265Z,24.63
2019-05-21T20:24:03.221Z,22.70
2019-05-21T20:26:32.583Z,22.97
2019-05-21T20:29:00.890Z,23.93
2019-05-21T20:31:29.017Z,24.53
2019-05-21T20:33:57.293Z,25.07
2019-05-21T20:36:24.768Z,23.63
2019-05-21T20:38:52.041Z,25.97
2019-05-21T20:41:19.279Z,27.40
2019-05-21T20:43:58.722Z,25.87
2019-05-21T20:46:16.498Z,27.13
2019-05-21T20:48:44.195Z,25.70
2019-05-21T20:51:12.709Z,24.73
2019-05-21T20:53:40.340Z,26.00
2019-05-21T20:56:07.878Z,25.37
2019-05-21T20:58:35.434Z,25.87
2019-05-21T21:01:05.038Z,26.30
2019-05-21T21:03:33.077Z,24.67
2019-05-21T21:08:32.089Z,25.27
2019-05-21T21:10:59.671Z,26.80
2019-05-21T21:13:28.076Z,25.70
2019-05-21T21:15:55.450Z,26.17
2019-05-21T21:18:24.455Z,26.43
2019-05-21T21:20:51.916Z,28.77
2019-05-21T21:23:21.556Z,24.70
2019-05-21T21:25:48.855Z,26.60
2019-05-21T21:28:16.963Z,27.60
2019-05-21T21:30:44.185Z,25.20
2019-05-21T21:33:12.979Z,26.30
2019-05-21T21:35:41.327Z,25.67
2019-05-21T21:38:10.580Z,25.83
2019-05-21T21:40:37.917Z,26.73
2019-05-21T21:43:07.890Z,27.53
2019-05-21T21:45:34.688Z,24.90
2019-05-21T21:48:02.013Z,26.30
2019-05-21T21:50:29.471Z,27.33
2019-05-21T21:52:56.735Z,26.97
2019-05-21T21:55:23.953Z,27.67
2019-05-21T21:57:52.225Z,28.37
2019-05-21T22:01:42.546Z,27.63
2019-05-21T22:06:37.124Z,26.93
2019-05-21T22:09:06.350Z,27.07
2019-05-21T22:11:34.129Z,26.93
2019-05-21T22:14:03.502Z,26.60
2019-05-21T22:16:30.882Z,26.27
2019-05-21T22:18:58.148Z,28.20
2019-05-21T22:21:26.085Z,27.60
2019-05-21T22:23:53.381Z,26.17
2019-05-21T22:26:21.039Z,27.37
2019-05-21T22:28:48.352Z,28.90
2019-05-21T22:31:15.619Z,25.90
2019-05-21T22:33:43.084Z,27.80
2019-05-21T22:36:10.811Z,27.50
2019-05-21T22:41:02.007Z,28.90
2019-05-21T22:43:29.775Z,29.43
2019-05-21T22:45:57.060Z,29.87
2019-05-21T22:48:24.313Z,28.17
2019-05-21T22:50:51.597Z,29.87
2019-05-21T22:53:18.833Z,27.53
2019-05-21T22:55:46.111Z,28.43
2019-05-21T22:58:15.519Z,28.20
2019-05-21T23:00:44.490Z,25.23
2019-05-21T23:03:12.519Z,27.00
2019-05-21T23:05:40.948Z,27.53
2019-05-21T23:08:09.751Z,28.03
2019-05-21T23:10:38.087Z,27.73
2019-05-21T23:13:05.878Z,28.73
2019-05-21T23:15:34.107Z,28.23
2019-05-21T23:18:20.919Z,28.43
2019-05-21T23:20:58.642Z,28.00
2019-05-21T23:23:28.830Z,29.03
2019-05-21T23:25:58.225Z,28.17
2019-05-21T23:28:27.713Z,28.47
2019-05-21T23:30:56.228Z,31.73
2019-05-21T23:33:25.168Z,29.90
2019-05-21T23:35:53.564Z,30.47
2019-05-21T23:38:21.313Z,30.73
2019-05-21T23:40:50.807Z,31.40
2019-05-21T23:43:19.361Z,31.33
2019-05-21T23:45:47.406Z,30.23
2019-05-21T23:48:15.649Z,29.97
2019-05-21T23:50:44.854Z,30.87
2019-05-21T23:53:12.741Z,29.47
2019-05-21T23:55:41.136Z,31.40
2019-05-21T23:58:09.752Z,31.77
